sensor_id;sensor_type;location;lat;lon;timestamp;temperature;humidity
15900;DHT22;8048;50.644;6.184;2024-03-08T00:01:06;3.60;96.60
15900;DHT22;8048;50.644;6.184;2024-03-08T00:03:32;3.70;96.80
15900;DHT22;8048;50.644;6.184;2024-03-08T00:05:58;3.70;96.40
15900;DHT22;8048;50.644;6.184;2024-03-08T00:08:24;3.70;96.00
15900;DHT22;8048;50.644;6.184;2024-03-08T00:10:50;3.60;96.00
15900;DHT22;8048;50.644;6.184;2024-03-08T00:13:15;3.60;96.60
15900;DHT22;8048;50.644;6.184;2024-03-08T00:15:41;3.50;96.40
15900;DHT22;8048;50.644;6.184;2024-03-08T00:18:07;3.50;96.60
15900;DHT22;8048;50.644;6.184;2024-03-08T00:20:32;3.50;96.10
15900;DHT22;8048;50.644;6.184;2024-03-08T00:22:58;3.50;96.10
15900;DHT22;8048;50.644;6.184;2024-03-08T00:25:24;3.50;96.50
15900;DHT22;8048;50.644;6.184;2024-03-08T00:27:50;3.60;96.60
15900;DHT22;8048;50.644;6.184;2024-03-08T00:30:15;3.60;96.20
15900;DHT22;8048;50.644;6.184;2024-03-08T00:32:41;3.60;96.10
15900;DHT22;8048;50.644;6.184;2024-03-08T00:35:07;3.60;96.00
15900;DHT22;8048;50.644;6.184;2024-03-08T00:37:33;3.50;96.60
15900;DHT22;8048;50.644;6.184;2024-03-08T00:40:00;3.50;96.50
15900;DHT22;8048;50.644;6.184;2024-03-08T00:42:25;3.50;96.30
15900;DHT22;8048;50.644;6.184;2024-03-08T00:44:51;3.50;96.50
15900;DHT22;8048;50.644;6.184;2024-03-08T00:47:17;3.50;96.20
15900;DHT22;8048;50.644;6.184;2024-03-08T00:49:43;3.40;96.30
15900;DHT22;8048;50.644;6.184;2024-03-08T00:52:08;3.50;96.00
15900;DHT22;8048;50.644;6.184;2024-03-08T00:54:35;3.50;95.90
15900;DHT22;8048;50.644;6.184;2024-03-08T00:57:04;3.40;96.30
15900;DHT22;8048;50.644;6.184;2024-03-08T00:59:30;3.50;96.60
15900;DHT22;8048;50.644;6.184;2024-03-08T01:01:58;3.50;96.20
15900;DHT22;8048;50.644;6.184;2024-03-08T01:04:24;3.50;96.20
15900;DHT22;8048;50.644;6.184;2024-03-08T01:06:51;3.40;95.90
15900;DHT22;8048;50.644;6.184;2024-03-08T01:09:16;3.30;95.90
15900;DHT22;8048;50.644;6.184;2024-03-08T01:11:43;3.30;96.20
15900;DHT22;8048;50.644;6.184;2024-03-08T01:14:08;3.20;96.30
15900;DHT22;8048;50.644;6.184;2024-03-08T01:16:34;3.20;96.40
15900;DHT22;8048;50.644;6.184;2024-03-08T01:19:00;3.10;96.20
15900;DHT22;8048;50.644;6.184;2024-03-08T01:21:25;3.20;96.00
15900;DHT22;8048;50.644;6.184;2024-03-08T01:23:51;3.00;96.10
15900;DHT22;8048;50.644;6.184;2024-03-08T01:26:17;3.00;96.50
15900;DHT22;8048;50.644;6.184;2024-03-08T01:28:42;2.90;96.30
15900;DHT22;8048;50.644;6.184;2024-03-08T01:31:08;3.00;96.40
15900;DHT22;8048;50.644;6.184;2024-03-08T01:33:33;2.90;96.30
15900;DHT22;8048;50.644;6.184;2024-03-08T01:35:59;2.80;96.70
15900;DHT22;8048;50.644;6.184;2024-03-08T01:38:24;2.90;96.40
15900;DHT22;8048;50.644;6.184;2024-03-08T01:40:50;2.80;96.50
15900;DHT22;8048;50.644;6.184;2024-03-08T01:43:26;2.80;97.10
15900;DHT22;8048;50.644;6.184;2024-03-08T01:45:54;2.80;96.80
15900;DHT22;8048;50.644;6.184;2024-03-08T01:48:21;2.80;96.90
15900;DHT22;8048;50.644;6.184;2024-03-08T01:50:50;2.70;97.00
15900;DHT22;8048;50.644;6.184;2024-03-08T01:53:18;2.80;97.00
15900;DHT22;8048;50.644;6.184;2024-03-08T01:55:46;2.80;96.60
15900;DHT22;8048;50.644;6.184;2024-03-08T01:58:13;2.80;97.00
15900;DHT22;8048;50.644;6.184;2024-03-08T02:00:44;2.80;97.20
15900;DHT22;8048;50.644;6.184;2024-03-08T02:03:10;2.80;97.00
15900;DHT22;8048;50.644;6.184;2024-03-08T02:05:41;2.70;96.90
15900;DHT22;8048;50.644;6.184;2024-03-08T02:08:07;2.70;97.10
15900;DHT22;8048;50.644;6.184;2024-03-08T02:10:36;2.70;97.00
15900;DHT22;8048;50.644;6.184;2024-03-08T02:13:02;2.70;96.90
15900;DHT22;8048;50.644;6.184;2024-03-08T02:15:51;2.70;96.80
15900;DHT22;8048;50.644;6.184;2024-03-08T02:18:17;2.60;97.00
15900;DHT22;8048;50.644;6.184;2024-03-08T02:20:43;2.70;97.10
15900;DHT22;8048;50.644;6.184;2024-03-08T02:23:09;2.70;96.90
15900;DHT22;8048;50.644;6.184;2024-03-08T02:25:35;2.60;97.20
15900;DHT22;8048;50.644;6.184;2024-03-08T02:28:01;2.60;97.30
15900;DHT22;8048;50.644;6.184;2024-03-08T02:30:26;2.50;97.30
15900;DHT22;8048;50.644;6.184;2024-03-08T02:32:55;2.60;97.10
15900;DHT22;8048;50.644;6.184;2024-03-08T02:35:21;2.60;97.30
15900;DHT22;8048;50.644;6.184;2024-03-08T02:37:46;2.60;97.40
15900;DHT22;8048;50.644;6.184;2024-03-08T02:40:13;2.80;97.60
15900;DHT22;8048;50.644;6.184;2024-03-08T02:42:39;2.70;97.20
15900;DHT22;8048;50.644;6.184;2024-03-08T02:45:05;2.70;96.80
15900;DHT22;8048;50.644;6.184;2024-03-08T02:47:31;2.60;96.90
15900;DHT22;8048;50.644;6.184;2024-03-08T02:49:57;2.60;97.20
15900;DHT22;8048;50.644;6.184;2024-03-08T02:52:22;2.70;96.80
15900;DHT22;8048;50.644;6.184;2024-03-08T02:54:48;2.60;96.90
15900;DHT22;8048;50.644;6.184;2024-03-08T02:57:15;2.60;97.10
15900;DHT22;8048;50.644;6.184;2024-03-08T02:59:42;2.50;97.20
15900;DHT22;8048;50.644;6.184;2024-03-08T03:02:07;2.50;97.40
15900;DHT22;8048;50.644;6.184;2024-03-08T03:04:33;2.50;97.40
15900;DHT22;8048;50.644;6.184;2024-03-08T03:07:01;2.50;97.40
15900;DHT22;8048;50.644;6.184;2024-03-08T03:09:27;2.50;97.10
15900;DHT22;8048;50.644;6.184;2024-03-08T03:11:54;2.60;97.10
15900;DHT22;8048;50.644;6.184;2024-03-08T03:14:21;2.60;97.40
15900;DHT22;8048;50.644;6.184;2024-03-08T03:16:47;2.70;97.20
15900;DHT22;8048;50.644;6.184;2024-03-08T03:19:12;2.80;97.70
15900;DHT22;8048;50.644;6.184;2024-03-08T03:21:38;2.70;97.50
15900;DHT22;8048;50.644;6.184;2024-03-08T03:24:04;2.80;97.40
15900;DHT22;8048;50.644;6.184;2024-03-08T03:26:38;2.70;97.30
15900;DHT22;8048;50.644;6.184;2024-03-08T03:29:07;2.70;97.70
15900;DHT22;8048;50.644;6.184;2024-03-08T03:31:34;2.80;96.90
15900;DHT22;8048;50.644;6.184;2024-03-08T03:34:00;2.80;96.50
15900;DHT22;8048;50.644;6.184;2024-03-08T03:36:30;2.80;96.80
15900;DHT22;8048;50.644;6.184;2024-03-08T03:38:56;2.70;96.60
15900;DHT22;8048;50.644;6.184;2024-03-08T03:41:38;2.60;96.50
15900;DHT22;8048;50.644;6.184;2024-03-08T03:44:04;2.60;97.30
15900;DHT22;8048;50.644;6.184;2024-03-08T03:46:32;2.60;97.40
15900;DHT22;8048;50.644;6.184;2024-03-08T03:48:58;2.60;97.10
15900;DHT22;8048;50.644;6.184;2024-03-08T03:51:24;2.60;96.90
15900;DHT22;8048;50.644;6.184;2024-03-08T03:53:50;2.60;97.60
15900;DHT22;8048;50.644;6.184;2024-03-08T03:56:16;2.60;97.90
15900;DHT22;8048;50.644;6.184;2024-03-08T03:58:42;2.60;98.00
15900;DHT22;8048;50.644;6.184;2024-03-08T04:01:08;2.60;97.90
15900;DHT22;8048;50.644;6.184;2024-03-08T04:03:35;2.60;97.70
15900;DHT22;8048;50.644;6.184;2024-03-08T04:06:00;2.50;97.00
15900;DHT22;8048;50.644;6.184;2024-03-08T04:08:27;2.50;97.20
15900;DHT22;8048;50.644;6.184;2024-03-08T04:10:53;2.50;97.30
15900;DHT22;8048;50.644;6.184;2024-03-08T04:13:19;2.50;98.00
15900;DHT22;8048;50.644;6.184;2024-03-08T04:15:46;2.70;98.60
15900;DHT22;8048;50.644;6.184;2024-03-08T04:18:13;2.70;98.10
15900;DHT22;8048;50.644;6.184;2024-03-08T04:20:39;2.80;96.90
15900;DHT22;8048;50.644;6.184;2024-03-08T04:23:05;2.70;97.60
15900;DHT22;8048;50.644;6.184;2024-03-08T04:25:31;2.70;97.10
15900;DHT22;8048;50.644;6.184;2024-03-08T04:27:57;2.70;97.60
15900;DHT22;8048;50.644;6.184;2024-03-08T04:30:23;2.80;98.00
15900;DHT22;8048;50.644;6.184;2024-03-08T04:32:49;2.70;96.90
15900;DHT22;8048;50.644;6.184;2024-03-08T04:35:15;2.80;97.20
15900;DHT22;8048;50.644;6.184;2024-03-08T04:37:40;2.80;97.30
15900;DHT22;8048;50.644;6.184;2024-03-08T04:40:08;2.90;96.90
15900;DHT22;8048;50.644;6.184;2024-03-08T04:42:34;2.70;96.40
15900;DHT22;8048;50.644;6.184;2024-03-08T04:45:02;2.60;97.20
15900;DHT22;8048;50.644;6.184;2024-03-08T04:47:29;2.60;96.70
15900;DHT22;8048;50.644;6.184;2024-03-08T04:49:55;2.50;96.70
15900;DHT22;8048;50.644;6.184;2024-03-08T04:52:21;2.60;97.50
15900;DHT22;8048;50.644;6.184;2024-03-08T04:54:47;2.60;96.80
15900;DHT22;8048;50.644;6.184;2024-03-08T04:57:13;2.60;96.70
15900;DHT22;8048;50.644;6.184;2024-03-08T04:59:39;2.60;96.90
15900;DHT22;8048;50.644;6.184;2024-03-08T05:02:05;2.70;97.10
15900;DHT22;8048;50.644;6.184;2024-03-08T05:04:32;2.60;97.30
15900;DHT22;8048;50.644;6.184;2024-03-08T05:06:58;2.50;97.20
15900;DHT22;8048;50.644;6.184;2024-03-08T05:09:27;2.60;97.50
15900;DHT22;8048;50.644;6.184;2024-03-08T05:11:56;2.60;97.30
15900;DHT22;8048;50.644;6.184;2024-03-08T05:14:25;2.60;97.20
15900;DHT22;8048;50.644;6.184;2024-03-08T05:16:50;2.60;96.80
15900;DHT22;8048;50.644;6.184;2024-03-08T05:19:17;2.40;96.70
15900;DHT22;8048;50.644;6.184;2024-03-08T05:21:51;2.40;96.90
15900;DHT22;8048;50.644;6.184;2024-03-08T05:24:17;2.30;97.00
15900;DHT22;8048;50.644;6.184;2024-03-08T05:26:43;2.20;97.30
15900;DHT22;8048;50.644;6.184;2024-03-08T05:29:09;2.10;97.50
15900;DHT22;8048;50.644;6.184;2024-03-08T05:31:51;2.10;97.20
15900;DHT22;8048;50.644;6.184;2024-03-08T05:34:18;2.20;97.40
15900;DHT22;8048;50.644;6.184;2024-03-08T05:36:45;2.10;97.20
15900;DHT22;8048;50.644;6.184;2024-03-08T05:39:16;2.10;97.50
15900;DHT22;8048;50.644;6.184;2024-03-08T05:41:42;2.00;97.60
15900;DHT22;8048;50.644;6.184;2024-03-08T05:44:09;2.00;97.80
15900;DHT22;8048;50.644;6.184;2024-03-08T05:46:35;2.00;97.50
15900;DHT22;8048;50.644;6.184;2024-03-08T05:49:02;2.00;97.40
15900;DHT22;8048;50.644;6.184;2024-03-08T05:51:34;2.00;97.60
15900;DHT22;8048;50.644;6.184;2024-03-08T05:54:01;2.00;97.50
15900;DHT22;8048;50.644;6.184;2024-03-08T05:56:28;1.90;97.90
15900;DHT22;8048;50.644;6.184;2024-03-08T05:58:54;1.80;98.20
15900;DHT22;8048;50.644;6.184;2024-03-08T06:01:20;1.90;97.90
15900;DHT22;8048;50.644;6.184;2024-03-08T06:03:45;1.90;97.90
15900;DHT22;8048;50.644;6.184;2024-03-08T06:06:13;1.90;97.80
15900;DHT22;8048;50.644;6.184;2024-03-08T06:08:39;2.00;98.20
15900;DHT22;8048;50.644;6.184;2024-03-08T06:11:04;2.10;97.80
15900;DHT22;8048;50.644;6.184;2024-03-08T06:13:32;2.00;97.70
15900;DHT22;8048;50.644;6.184;2024-03-08T06:15:59;2.00;97.90
15900;DHT22;8048;50.644;6.184;2024-03-08T06:18:26;2.00;98.00
15900;DHT22;8048;50.644;6.184;2024-03-08T06:20:52;2.10;97.80
15900;DHT22;8048;50.644;6.184;2024-03-08T06:23:18;2.10;98.50
15900;DHT22;8048;50.644;6.184;2024-03-08T06:25:46;2.10;98.00
15900;DHT22;8048;50.644;6.184;2024-03-08T06:28:12;2.30;98.20
15900;DHT22;8048;50.644;6.184;2024-03-08T06:30:39;2.40;98.30
15900;DHT22;8048;50.644;6.184;2024-03-08T06:33:05;2.30;97.50
15900;DHT22;8048;50.644;6.184;2024-03-08T06:35:31;2.20;97.70
15900;DHT22;8048;50.644;6.184;2024-03-08T06:38:05;2.20;98.10
15900;DHT22;8048;50.644;6.184;2024-03-08T06:40:31;2.20;97.70
15900;DHT22;8048;50.644;6.184;2024-03-08T06:42:57;2.20;97.60
15900;DHT22;8048;50.644;6.184;2024-03-08T06:45:22;2.10;97.70
15900;DHT22;8048;50.644;6.184;2024-03-08T06:47:49;2.20;98.20
15900;DHT22;8048;50.644;6.184;2024-03-08T06:50:15;2.10;97.50
15900;DHT22;8048;50.644;6.184;2024-03-08T06:52:41;2.10;97.70
15900;DHT22;8048;50.644;6.184;2024-03-08T06:55:10;2.00;97.70
15900;DHT22;8048;50.644;6.184;2024-03-08T06:57:42;2.00;97.80
15900;DHT22;8048;50.644;6.184;2024-03-08T07:00:08;2.00;98.10
15900;DHT22;8048;50.644;6.184;2024-03-08T07:02:46;2.00;98.00
15900;DHT22;8048;50.644;6.184;2024-03-08T07:05:14;1.90;98.10
15900;DHT22;8048;50.644;6.184;2024-03-08T07:07:41;1.90;98.10
15900;DHT22;8048;50.644;6.184;2024-03-08T07:10:07;1.80;98.10
15900;DHT22;8048;50.644;6.184;2024-03-08T07:12:37;1.80;98.40
15900;DHT22;8048;50.644;6.184;2024-03-08T07:15:04;1.80;98.20
15900;DHT22;8048;50.644;6.184;2024-03-08T07:17:30;1.90;98.40
15900;DHT22;8048;50.644;6.184;2024-03-08T07:19:56;1.90;98.30
15900;DHT22;8048;50.644;6.184;2024-03-08T07:22:24;1.90;98.10
15900;DHT22;8048;50.644;6.184;2024-03-08T07:24:50;1.90;98.20
15900;DHT22;8048;50.644;6.184;2024-03-08T07:27:41;1.90;98.30
15900;DHT22;8048;50.644;6.184;2024-03-08T07:30:07;1.90;98.20
15900;DHT22;8048;50.644;6.184;2024-03-08T07:32:35;1.90;98.30
15900;DHT22;8048;50.644;6.184;2024-03-08T07:35:01;1.90;98.50
15900;DHT22;8048;50.644;6.184;2024-03-08T07:37:27;1.90;98.40
15900;DHT22;8048;50.644;6.184;2024-03-08T07:39:53;1.90;98.20
15900;DHT22;8048;50.644;6.184;2024-03-08T07:42:18;2.00;98.20
15900;DHT22;8048;50.644;6.184;2024-03-08T07:44:44;2.00;98.00
15900;DHT22;8048;50.644;6.184;2024-03-08T07:47:11;2.10;98.30
15900;DHT22;8048;50.644;6.184;2024-03-08T07:49:37;2.10;97.90
15900;DHT22;8048;50.644;6.184;2024-03-08T07:52:04;2.10;97.90
15900;DHT22;8048;50.644;6.184;2024-03-08T07:54:33;2.20;97.80
15900;DHT22;8048;50.644;6.184;2024-03-08T07:57:00;2.20;97.90
15900;DHT22;8048;50.644;6.184;2024-03-08T07:59:27;2.30;97.80
15900;DHT22;8048;50.644;6.184;2024-03-08T08:01:53;2.40;97.50
15900;DHT22;8048;50.644;6.184;2024-03-08T08:04:18;2.40;97.50
15900;DHT22;8048;50.644;6.184;2024-03-08T08:06:45;2.40;97.30
15900;DHT22;8048;50.644;6.184;2024-03-08T08:09:11;2.50;97.50
15900;DHT22;8048;50.644;6.184;2024-03-08T08:11:42;2.60;97.10
15900;DHT22;8048;50.644;6.184;2024-03-08T08:14:09;2.70;97.00
15900;DHT22;8048;50.644;6.184;2024-03-08T08:16:36;2.70;96.70
15900;DHT22;8048;50.644;6.184;2024-03-08T08:19:03;2.80;96.90
15900;DHT22;8048;50.644;6.184;2024-03-08T08:21:34;2.90;96.70
15900;DHT22;8048;50.644;6.184;2024-03-08T08:24:00;3.00;96.50
15900;DHT22;8048;50.644;6.184;2024-03-08T08:26:28;3.10;96.40
15900;DHT22;8048;50.644;6.184;2024-03-08T08:28:53;3.20;96.00
15900;DHT22;8048;50.644;6.184;2024-03-08T08:31:20;3.20;95.90
15900;DHT22;8048;50.644;6.184;2024-03-08T08:33:45;3.30;95.90
15900;DHT22;8048;50.644;6.184;2024-03-08T08:36:13;3.40;95.80
15900;DHT22;8048;50.644;6.184;2024-03-08T08:38:39;3.50;95.70
15900;DHT22;8048;50.644;6.184;2024-03-08T08:41:05;3.70;95.40
15900;DHT22;8048;50.644;6.184;2024-03-08T08:43:31;3.70;94.90
15900;DHT22;8048;50.644;6.184;2024-03-08T08:45:58;3.70;94.70
15900;DHT22;8048;50.644;6.184;2024-03-08T08:48:24;3.80;94.70
15900;DHT22;8048;50.644;6.184;2024-03-08T08:50:50;3.90;94.30
15900;DHT22;8048;50.644;6.184;2024-03-08T08:53:17;4.00;94.60
15900;DHT22;8048;50.644;6.184;2024-03-08T08:55:43;4.20;94.40
15900;DHT22;8048;50.644;6.184;2024-03-08T08:58:11;4.20;94.00
15900;DHT22;8048;50.644;6.184;2024-03-08T09:00:36;4.30;93.80
15900;DHT22;8048;50.644;6.184;2024-03-08T09:03:02;4.40;93.40
15900;DHT22;8048;50.644;6.184;2024-03-08T09:05:28;4.50;93.60
15900;DHT22;8048;50.644;6.184;2024-03-08T09:07:54;4.70;93.30
15900;DHT22;8048;50.644;6.184;2024-03-08T09:10:20;4.90;92.90
15900;DHT22;8048;50.644;6.184;2024-03-08T09:12:47;5.00;92.60
15900;DHT22;8048;50.644;6.184;2024-03-08T09:15:13;5.20;92.40
15900;DHT22;8048;50.644;6.184;2024-03-08T09:17:38;5.30;92.30
15900;DHT22;8048;50.644;6.184;2024-03-08T09:20:09;5.40;91.90
15900;DHT22;8048;50.644;6.184;2024-03-08T09:22:35;5.60;91.90
15900;DHT22;8048;50.644;6.184;2024-03-08T09:25:02;5.80;91.70
15900;DHT22;8048;50.644;6.184;2024-03-08T09:27:30;5.80;91.50
15900;DHT22;8048;50.644;6.184;2024-03-08T09:29:56;5.90;91.30
15900;DHT22;8048;50.644;6.184;2024-03-08T09:32:21;6.10;90.90
15900;DHT22;8048;50.644;6.184;2024-03-08T09:34:48;6.30;90.50
15900;DHT22;8048;50.644;6.184;2024-03-08T09:37:13;6.10;90.30
15900;DHT22;8048;50.644;6.184;2024-03-08T09:39:39;6.20;90.20
15900;DHT22;8048;50.644;6.184;2024-03-08T09:42:05;6.40;90.50
15900;DHT22;8048;50.644;6.184;2024-03-08T09:44:31;6.40;90.00
15900;DHT22;8048;50.644;6.184;2024-03-08T09:46:58;6.60;89.90
15900;DHT22;8048;50.644;6.184;2024-03-08T09:49:24;6.90;89.10
15900;DHT22;8048;50.644;6.184;2024-03-08T09:51:50;7.10;88.80
15900;DHT22;8048;50.644;6.184;2024-03-08T09:54:16;7.30;87.40
15900;DHT22;8048;50.644;6.184;2024-03-08T09:56:43;7.30;86.40
15900;DHT22;8048;50.644;6.184;2024-03-08T09:59:09;7.40;87.10
15900;DHT22;8048;50.644;6.184;2024-03-08T10:02:01;7.60;85.80
15900;DHT22;8048;50.644;6.184;2024-03-08T10:04:28;7.60;85.70
15900;DHT22;8048;50.644;6.184;2024-03-08T10:07:00;7.50;85.00
15900;DHT22;8048;50.644;6.184;2024-03-08T10:09:26;7.80;85.20
15900;DHT22;8048;50.644;6.184;2024-03-08T10:11:56;8.10;84.50
15900;DHT22;8048;50.644;6.184;2024-03-08T10:14:23;8.30;83.30
15900;DHT22;8048;50.644;6.184;2024-03-08T10:16:49;8.60;84.80
15900;DHT22;8048;50.644;6.184;2024-03-08T10:19:16;8.70;82.00
15900;DHT22;8048;50.644;6.184;2024-03-08T10:21:49;8.80;81.80
15900;DHT22;8048;50.644;6.184;2024-03-08T10:24:14;8.50;80.60
15900;DHT22;8048;50.644;6.184;2024-03-08T10:26:40;8.60;82.40
15900;DHT22;8048;50.644;6.184;2024-03-08T10:29:09;8.80;82.30
15900;DHT22;8048;50.644;6.184;2024-03-08T10:31:34;9.10;81.80
15900;DHT22;8048;50.644;6.184;2024-03-08T10:34:01;9.40;80.70
15900;DHT22;8048;50.644;6.184;2024-03-08T10:36:28;9.40;81.70
15900;DHT22;8048;50.644;6.184;2024-03-08T10:38:53;9.90;81.90
15900;DHT22;8048;50.644;6.184;2024-03-08T10:41:24;10.00;77.00
15900;DHT22;8048;50.644;6.184;2024-03-08T10:46:54;10.80;75.30
15900;DHT22;8048;50.644;6.184;2024-03-08T10:49:31;10.90;74.30
15900;DHT22;8048;50.644;6.184;2024-03-08T10:52:03;11.30;76.60
15900;DHT22;8048;50.644;6.184;2024-03-08T10:54:31;11.60;75.20
15900;DHT22;8048;50.644;6.184;2024-03-08T10:56:59;12.10;75.50
15900;DHT22;8048;50.644;6.184;2024-03-08T10:59:28;12.10;71.60
15900;DHT22;8048;50.644;6.184;2024-03-08T11:01:54;11.60;71.40
15900;DHT22;8048;50.644;6.184;2024-03-08T11:04:20;11.50;70.30
15900;DHT22;8048;50.644;6.184;2024-03-08T11:06:50;11.80;72.10
15900;DHT22;8048;50.644;6.184;2024-03-08T11:09:31;12.10;71.60
15900;DHT22;8048;50.644;6.184;2024-03-08T11:14:49;12.40;71.20
15900;DHT22;8048;50.644;6.184;2024-03-08T11:20:18;12.60;68.00
15900;DHT22;8048;50.644;6.184;2024-03-08T11:22:55;12.70;68.40
15900;DHT22;8048;50.644;6.184;2024-03-08T11:25:32;12.60;67.80
15900;DHT22;8048;50.644;6.184;2024-03-08T11:31:22;12.30;65.50
15900;DHT22;8048;50.644;6.184;2024-03-08T11:33:36;11.80;67.00
15900;DHT22;8048;50.644;6.184;2024-03-08T11:36:12;12.20;66.60
15900;DHT22;8048;50.644;6.184;2024-03-08T11:38:45;12.20;65.70
15900;DHT22;8048;50.644;6.184;2024-03-08T11:41:17;12.60;68.20
15900;DHT22;8048;50.644;6.184;2024-03-08T11:43:43;13.40;71.10
15900;DHT22;8048;50.644;6.184;2024-03-08T11:46:10;13.70;66.10
15900;DHT22;8048;50.644;6.184;2024-03-08T11:48:40;14.00;63.90
15900;DHT22;8048;50.644;6.184;2024-03-08T11:51:13;14.00;68.50
15900;DHT22;8048;50.644;6.184;2024-03-08T11:53:40;14.80;66.60
15900;DHT22;8048;50.644;6.184;2024-03-08T11:56:13;14.60;62.20
15900;DHT22;8048;50.644;6.184;2024-03-08T11:58:39;14.30;62.70
15900;DHT22;8048;50.644;6.184;2024-03-08T12:03:31;14.10;65.00
15900;DHT22;8048;50.644;6.184;2024-03-08T12:05:59;14.50;61.00
15900;DHT22;8048;50.644;6.184;2024-03-08T12:08:25;13.90;63.40
15900;DHT22;8048;50.644;6.184;2024-03-08T12:10:54;14.30;62.60
15900;DHT22;8048;50.644;6.184;2024-03-08T12:13:26;14.50;64.20
15900;DHT22;8048;50.644;6.184;2024-03-08T12:15:58;15.40;63.40
15900;DHT22;8048;50.644;6.184;2024-03-08T12:18:25;15.80;60.90
15900;DHT22;8048;50.644;6.184;2024-03-08T12:20:51;16.30;62.10
15900;DHT22;8048;50.644;6.184;2024-03-08T12:23:17;16.00;58.00
15900;DHT22;8048;50.644;6.184;2024-03-08T12:25:43;16.00;59.60
15900;DHT22;8048;50.644;6.184;2024-03-08T12:28:10;16.50;59.60
15900;DHT22;8048;50.644;6.184;2024-03-08T12:30:48;16.50;61.80
15900;DHT22;8048;50.644;6.184;2024-03-08T12:33:14;16.50;58.20
15900;DHT22;8048;50.644;6.184;2024-03-08T12:35:40;16.20;59.00
15900;DHT22;8048;50.644;6.184;2024-03-08T12:38:07;16.20;56.90
15900;DHT22;8048;50.644;6.184;2024-03-08T12:40:34;16.50;60.30
15900;DHT22;8048;50.644;6.184;2024-03-08T12:43:01;17.00;57.10
15900;DHT22;8048;50.644;6.184;2024-03-08T12:45:27;17.10;59.20
15900;DHT22;8048;50.644;6.184;2024-03-08T12:47:56;16.60;56.60
15900;DHT22;8048;50.644;6.184;2024-03-08T12:50:22;16.20;57.10
15900;DHT22;8048;50.644;6.184;2024-03-08T12:52:50;16.20;58.40
15900;DHT22;8048;50.644;6.184;2024-03-08T12:55:16;16.50;58.20
15900;DHT22;8048;50.644;6.184;2024-03-08T12:57:43;16.60;59.90
15900;DHT22;8048;50.644;6.184;2024-03-08T13:00:10;16.60;57.20
15900;DHT22;8048;50.644;6.184;2024-03-08T13:02:39;16.70;56.90
15900;DHT22;8048;50.644;6.184;2024-03-08T13:05:06;16.70;55.80
15900;DHT22;8048;50.644;6.184;2024-03-08T13:07:31;16.80;56.30
15900;DHT22;8048;50.644;6.184;2024-03-08T13:09:57;17.00;58.70
15900;DHT22;8048;50.644;6.184;2024-03-08T13:12:25;17.40;57.20
15900;DHT22;8048;50.644;6.184;2024-03-08T13:14:51;17.10;57.60
15900;DHT22;8048;50.644;6.184;2024-03-08T13:17:17;16.80;56.70
15900;DHT22;8048;50.644;6.184;2024-03-08T13:19:44;16.60;56.30
15900;DHT22;8048;50.644;6.184;2024-03-08T13:22:10;16.80;56.80
15900;DHT22;8048;50.644;6.184;2024-03-08T13:24:41;17.10;55.40
15900;DHT22;8048;50.644;6.184;2024-03-08T13:27:09;17.50;56.90
15900;DHT22;8048;50.644;6.184;2024-03-08T13:29:49;18.30;57.10
15900;DHT22;8048;50.644;6.184;2024-03-08T13:32:18;18.40;57.50
15900;DHT22;8048;50.644;6.184;2024-03-08T13:34:46;18.40;55.20
15900;DHT22;8048;50.644;6.184;2024-03-08T13:37:13;17.40;54.80
15900;DHT22;8048;50.644;6.184;2024-03-08T13:39:42;16.50;54.30
15900;DHT22;8048;50.644;6.184;2024-03-08T13:42:11;16.10;55.30
15900;DHT22;8048;50.644;6.184;2024-03-08T13:44:47;16.00;56.30
15900;DHT22;8048;50.644;6.184;2024-03-08T13:47:16;16.20;55.60
15900;DHT22;8048;50.644;6.184;2024-03-08T13:49:43;16.20;57.80
15900;DHT22;8048;50.644;6.184;2024-03-08T13:52:09;16.40;55.20
15900;DHT22;8048;50.644;6.184;2024-03-08T13:54:36;16.40;56.40
15900;DHT22;8048;50.644;6.184;2024-03-08T13:57:02;16.50;58.90
15900;DHT22;8048;50.644;6.184;2024-03-08T13:59:33;16.30;54.70
15900;DHT22;8048;50.644;6.184;2024-03-08T14:02:00;16.30;55.50
15900;DHT22;8048;50.644;6.184;2024-03-08T14:04:30;16.30;55.50
15900;DHT22;8048;50.644;6.184;2024-03-08T14:06:55;16.20;55.20
15900;DHT22;8048;50.644;6.184;2024-03-08T14:09:29;15.80;54.30
15900;DHT22;8048;50.644;6.184;2024-03-08T14:11:56;15.60;54.80
15900;DHT22;8048;50.644;6.184;2024-03-08T14:14:22;15.60;57.90
15900;DHT22;8048;50.644;6.184;2024-03-08T14:16:51;15.80;58.70
15900;DHT22;8048;50.644;6.184;2024-03-08T14:19:23;15.90;56.50
15900;DHT22;8048;50.644;6.184;2024-03-08T14:21:48;16.20;56.80
15900;DHT22;8048;50.644;6.184;2024-03-08T14:24:15;16.30;54.90
15900;DHT22;8048;50.644;6.184;2024-03-08T14:26:42;16.40;56.40
15900;DHT22;8048;50.644;6.184;2024-03-08T14:29:08;15.80;54.50
15900;DHT22;8048;50.644;6.184;2024-03-08T14:31:35;15.60;54.50
15900;DHT22;8048;50.644;6.184;2024-03-08T14:34:01;15.60;56.50
15900;DHT22;8048;50.644;6.184;2024-03-08T14:36:31;15.70;55.00
15900;DHT22;8048;50.644;6.184;2024-03-08T14:38:57;15.50;55.30
15900;DHT22;8048;50.644;6.184;2024-03-08T14:41:23;15.60;56.80
15900;DHT22;8048;50.644;6.184;2024-03-08T14:43:48;15.90;57.60
15900;DHT22;8048;50.644;6.184;2024-03-08T14:46:15;15.60;56.00
15900;DHT22;8048;50.644;6.184;2024-03-08T14:48:49;15.20;55.60
15900;DHT22;8048;50.644;6.184;2024-03-08T14:51:17;15.30;59.30
15900;DHT22;8048;50.644;6.184;2024-03-08T14:53:45;15.70;58.30
15900;DHT22;8048;50.644;6.184;2024-03-08T14:56:13;15.60;55.90
15900;DHT22;8048;50.644;6.184;2024-03-08T14:58:43;15.40;57.20
15900;DHT22;8048;50.644;6.184;2024-03-08T15:01:12;15.00;57.90
15900;DHT22;8048;50.644;6.184;2024-03-08T15:03:41;14.70;56.00
15900;DHT22;8048;50.644;6.184;2024-03-08T15:06:08;14.20;56.40
15900;DHT22;8048;50.644;6.184;2024-03-08T15:08:36;14.20;57.50
15900;DHT22;8048;50.644;6.184;2024-03-08T15:11:01;14.30;58.40
15900;DHT22;8048;50.644;6.184;2024-03-08T15:13:27;14.50;57.90
15900;DHT22;8048;50.644;6.184;2024-03-08T15:15:59;14.70;61.00
15900;DHT22;8048;50.644;6.184;2024-03-08T15:18:25;14.80;60.30
15900;DHT22;8048;50.644;6.184;2024-03-08T15:20:54;15.10;58.50
15900;DHT22;8048;50.644;6.184;2024-03-08T15:23:20;15.00;56.70
15900;DHT22;8048;50.644;6.184;2024-03-08T15:25:47;14.70;56.40
15900;DHT22;8048;50.644;6.184;2024-03-08T15:28:15;14.50;56.80
15900;DHT22;8048;50.644;6.184;2024-03-08T15:30:41;14.50;57.50
15900;DHT22;8048;50.644;6.184;2024-03-08T15:33:14;14.50;57.20
15900;DHT22;8048;50.644;6.184;2024-03-08T15:35:45;14.50;57.30
15900;DHT22;8048;50.644;6.184;2024-03-08T15:38:15;14.30;57.20
15900;DHT22;8048;50.644;6.184;2024-03-08T15:40:41;14.10;56.60
15900;DHT22;8048;50.644;6.184;2024-03-08T15:43:06;13.80;56.20
15900;DHT22;8048;50.644;6.184;2024-03-08T15:45:33;13.20;56.80
15900;DHT22;8048;50.644;6.184;2024-03-08T15:48:02;13.30;58.20
15900;DHT22;8048;50.644;6.184;2024-03-08T15:50:30;13.00;57.90
15900;DHT22;8048;50.644;6.184;2024-03-08T15:52:57;12.40;57.20
15900;DHT22;8048;50.644;6.184;2024-03-08T15:55:24;12.00;57.70
15900;DHT22;8048;50.644;6.184;2024-03-08T15:57:52;11.80;58.10
15900;DHT22;8048;50.644;6.184;2024-03-08T16:00:21;11.70;58.80
15900;DHT22;8048;50.644;6.184;2024-03-08T16:03:10;11.70;58.70
15900;DHT22;8048;50.644;6.184;2024-03-08T16:05:47;11.60;58.60
15900;DHT22;8048;50.644;6.184;2024-03-08T16:08:15;11.40;57.70
15900;DHT22;8048;50.644;6.184;2024-03-08T16:10:45;11.30;57.90
15900;DHT22;8048;50.644;6.184;2024-03-08T16:13:17;11.30;58.50